Time;durP1;ratioP1;P1;durP2;ratioP2;P2;SDS_P1;SDS_P2;PMS_P1;PMS_P2;Temp;Humidity;BMP_temperature;BMP_pressure;BME280_temperature;BME280_humidity;BME280_pressure;Samples;Min_cycle;Max_cycle;Signal;HPM_P1;HPM_P2
2023/06/02 00:01:06;;;;;;;;;;;;;;;10.65;69.10;102121.53;5081421;28;1327;-71
2023/06/02 00:03:33;;;;;;;;;;;;;;;10.70;69.11;102129.06;5052355;28;1340;-73
2023/06/02 00:06:03;;;;;;;;;;;;;;;10.72;69.88;102122.00;5060858;28;1016;-71
2023/06/02 00:08:28;;;;;;;;;;;;;;;10.73;69.08;102123.69;5059965;28;1233;-73
2023/06/02 00:10:54;;;;;;;;;;;;;;;10.74;69.34;102126.19;5067483;28;1091;-72
2023/06/02 00:13:19;;;;;;;;;;;;;;;10.75;69.25;102127.00;5060438;28;2000;-73
2023/06/02 00:15:45;;;;;;;;;;;;;;;10.77;69.56;102119.94;5063751;28;1208;-72
2023/06/02 00:18:10;;;;;;;;;;;;;;;10.79;69.81;102115.53;5068566;28;1238;-72
2023/06/02 00:20:36;;;;;;;;;;;;;;;10.80;69.42;102119.78;5062929;28;1375;-73
2023/06/02 00:23:02;;;;;;;;;;;;;;;10.76;68.74;102113.09;5059716;28;1227;-72
2023/06/02 00:25:27;;;;;;;;;;;;;;;10.77;69.28;102114.75;5065325;28;1209;-72
2023/06/02 00:27:53;;;;;;;;;;;;;;;10.77;69.07;102109.56;5057497;28;1327;-71
2023/06/02 00:30:18;;;;;;;;;;;;;;;10.80;69.51;102104.22;5065231;28;1286;-73
2023/06/02 00:32:43;;;;;;;;;;;;;;;10.84;68.92;102100.50;5067566;28;1969;-72
2023/06/02 00:35:08;;;;;;;;;;;;;;;10.86;68.57;102104.66;5064639;28;1237;-73
2023/06/02 00:37:33;;;;;;;;;;;;;;;10.84;68.27;102101.34;5059959;28;1080;-72
2023/06/02 00:39:59;;;;;;;;;;;;;;;10.82;69.55;102102.34;5065900;28;1198;-72
2023/06/02 00:42:24;;;;;;;;;;;;;;;10.82;69.15;102097.16;5060940;28;1555;-74
2023/06/02 00:44:49;;;;;;;;;;;;;;;10.79;69.29;102093.00;5064420;28;1305;-74
2023/06/02 00:47:14;;;;;;;;;;;;;;;10.79;69.27;102097.34;5065355;28;1309;-72
2023/06/02 00:49:41;;;;;;;;;;;;;;;10.77;69.13;102094.84;5071620;28;1539;-72
2023/06/02 00:52:07;;;;;;;;;;;;;;;10.83;69.15;102093.63;5071405;28;1132;-72
2023/06/02 00:54:32;;;;;;;;;;;;;;;10.87;70.19;102095.09;5061272;28;2012;-72
2023/06/02 00:56:57;;;;;;;;;;;;;;;10.87;68.76;102100.28;5060191;28;1159;-72
2023/06/02 00:59:23;;;;;;;;;;;;;;;10.84;69.22;102095.31;5066000;28;1210;-72
2023/06/02 01:01:49;;;;;;;;;;;;;;;10.86;69.21;102099.47;5064943;28;1241;-73
2023/06/02 01:04:15;;;;;;;;;;;;;;;10.87;69.52;102097.69;5068115;28;1103;-74
2023/06/02 01:06:40;;;;;;;;;;;;;;;10.88;69.37;102107.16;5061076;28;1224;-72
2023/06/02 01:09:07;;;;;;;;;;;;;;;10.87;69.33;102089.91;5064031;28;1223;-72
2023/06/02 01:11:33;;;;;;;;;;;;;;;10.86;69.45;102098.63;5066684;28;1261;-72
2023/06/02 01:13:59;;;;;;;;;;;;;;;10.88;69.50;102097.59;5061995;28;1969;-72
2023/06/02 01:16:26;;;;;;;;;;;;;;;10.88;69.63;102096.75;5067611;28;1187;-72
2023/06/02 01:18:52;;;;;;;;;;;;;;;10.87;70.09;102106.31;5063927;28;1293;-72
2023/06/02 01:21:22;;;;;;;;;;;;;;;10.86;70.18;102099.47;5059534;28;1320;-73
2023/06/02 01:23:51;;;;;;;;;;;;;;;10.83;70.53;102098.81;5068827;28;1255;-73
2023/06/02 01:26:16;;;;;;;;;;;;;;;10.83;69.42;102098.81;5062974;28;1218;-72
2023/06/02 01:28:41;;;;;;;;;;;;;;;10.85;70.58;102094.38;5060672;28;1269;-72
2023/06/02 01:31:16;;;;;;;;;;;;;;;10.85;70.62;102096.97;5061881;28;1317;-72
2023/06/02 01:33:54;;;;;;;;;;;;;;;10.79;70.31;102092.16;5064204;28;1901;-72
2023/06/02 01:36:21;;;;;;;;;;;;;;;10.80;70.23;102099.03;5059747;28;1419;-72
2023/06/02 01:38:48;;;;;;;;;;;;;;;10.83;71.01;102098.81;5063125;28;1327;-73
2023/06/02 01:41:15;;;;;;;;;;;;;;;10.83;70.58;102102.22;5064017;28;1137;-72
2023/06/02 01:43:41;;;;;;;;;;;;;;;10.80;70.40;102099.03;5063129;28;1449;-71
2023/06/02 01:46:06;;;;;;;;;;;;;;;10.77;70.86;102094.00;5063335;28;1403;-75
2023/06/02 01:48:32;;;;;;;;;;;;;;;10.77;70.74;102094.00;5064371;28;1402;-72
2023/06/02 01:50:57;;;;;;;;;;;;;;;10.77;69.90;102088.81;5059456;28;1195;-72
2023/06/02 01:53:26;;;;;;;;;;;;;;;10.76;70.35;102097.53;5053257;28;1972;-75
2023/06/02 01:55:51;;;;;;;;;;;;;;;10.75;70.24;102095.88;5066455;28;1312;-73
2023/06/02 01:58:16;;;;;;;;;;;;;;;10.73;69.63;102108.13;5063447;28;1403;-72
2023/06/02 02:00:41;;;;;;;;;;;;;;;10.63;69.75;102098.28;5066386;28;1331;-72
2023/06/02 02:03:07;;;;;;;;;;;;;;;10.60;70.24;102108.00;5058535;28;1182;-73
2023/06/02 02:05:32;;;;;;;;;;;;;;;10.53;70.18;102107.56;5066827;28;1104;-75
2023/06/02 02:07:57;;;;;;;;;;;;;;;10.52;69.73;102105.91;5064568;28;1324;-72
2023/06/02 02:10:23;;;;;;;;;;;;;;;10.52;69.93;102103.31;5057726;28;1458;-72
2023/06/02 02:12:48;;;;;;;;;;;;;;;10.47;69.25;102105.34;5063590;28;1902;-74
2023/06/02 02:15:13;;;;;;;;;;;;;;;10.45;69.61;102104.59;5066500;28;1100;-73
2023/06/02 02:17:44;;;;;;;;;;;;;;;10.45;69.57;102108.97;5066804;28;1347;-72
2023/06/02 02:20:10;;;;;;;;;;;;;;;10.46;69.86;102106.28;5059935;28;1011;-72
2023/06/02 02:22:36;;;;;;;;;;;;;;;10.45;69.96;102109.78;5060474;28;1719;-72
2023/06/02 02:25:02;;;;;;;;;;;;;;;10.44;69.26;102110.72;5059427;28;1438;-72
2023/06/02 02:27:27;;;;;;;;;;;;;;;10.39;69.29;102107.56;5062645;28;1303;-72
2023/06/02 02:29:53;;;;;;;;;;;;;;;10.40;70.16;102106.66;5058830;28;1263;-74
2023/06/02 02:32:18;;;;;;;;;;;;;;;10.42;69.76;102104.78;5057726;28;1273;-72
2023/06/02 02:34:46;;;;;;;;;;;;;;;10.42;69.95;102106.53;5060404;28;2057;-72
2023/06/02 02:37:12;;;;;;;;;;;;;;;10.44;70.10;102102.13;5063343;28;1206;-75
2023/06/02 02:39:37;;;;;;;;;;;;;;;10.46;69.99;102106.28;5063912;28;1271;-75
2023/06/02 02:42:03;;;;;;;;;;;;;;;10.45;69.75;102103.78;5055775;28;1242;-75
2023/06/02 02:44:28;;;;;;;;;;;;;;;10.43;70.27;102101.25;5062029;28;1324;-72
2023/06/02 02:46:53;;;;;;;;;;;;;;;10.39;70.61;102102.38;5061086;28;1226;-72
2023/06/02 02:49:18;;;;;;;;;;;;;;;10.37;70.22;102106.81;5058050;28;985;-73
2023/06/02 02:51:44;;;;;;;;;;;;;;;10.35;70.52;102108.69;5062627;28;1349;-73
2023/06/02 02:54:09;;;;;;;;;;;;;;;10.30;70.03;102111.53;5065022;28;1910;-72
2023/06/02 02:56:36;;;;;;;;;;;;;;;10.24;70.09;102113.66;5066097;28;1227;-72
2023/06/02 02:59:02;;;;;;;;;;;;;;;10.19;69.90;102111.31;5066184;28;1245;-72
2023/06/02 03:01:27;;;;;;;;;;;;;;;10.19;70.19;102111.31;5064931;28;1474;-72
2023/06/02 03:03:53;;;;;;;;;;;;;;;10.17;70.01;102114.94;5061527;28;1192;-72
2023/06/02 03:06:18;;;;;;;;;;;;;;;10.11;69.93;102109.19;5062354;28;1293;-73
2023/06/02 03:08:44;;;;;;;;;;;;;;;10.07;70.19;102107.69;5061989;28;1370;-73
2023/06/02 03:11:09;;;;;;;;;;;;;;;10.05;70.88;102112.13;5067895;28;1217;-72
2023/06/02 03:13:34;;;;;;;;;;;;;;;10.06;70.33;102112.97;5066580;28;1894;-72
2023/06/02 03:16:00;;;;;;;;;;;;;;;10.08;70.08;102111.94;5070989;28;1224;-72
2023/06/02 03:18:25;;;;;;;;;;;;;;;10.02;69.94;102112.31;5059006;28;1598;-72
2023/06/02 03:20:51;;;;;;;;;;;;;;;10.01;70.04;102115.81;5068483;28;1239;-71
2023/06/02 03:23:17;;;;;;;;;;;;;;;9.99;69.45;102122.88;5064931;28;1218;-73
2023/06/02 03:25:43;;;;;;;;;;;;;;;9.97;69.47;102122.09;5069931;28;1368;-74
2023/06/02 03:28:08;;;;;;;;;;;;;;;10.01;70.13;102121.00;5061776;28;1453;-72
2023/06/02 03:30:33;;;;;;;;;;;;;;;10.03;69.52;102121.75;5075031;28;1183;-72
2023/06/02 03:32:58;;;;;;;;;;;;;;;9.98;68.84;102123.81;5063208;28;1982;-76
2023/06/02 03:35:24;;;;;;;;;;;;;;;9.96;69.46;102115.25;5067417;28;1375;-71
2023/06/02 03:37:49;;;;;;;;;;;;;;;9.98;70.12;102120.38;5061650;28;1206;-72
2023/06/02 03:40:14;;;;;;;;;;;;;;;9.97;69.63;102114.31;5066854;28;1105;-72
2023/06/02 03:42:39;;;;;;;;;;;;;;;9.96;69.41;102115.25;5068020;28;1215;-74
2023/06/02 03:45:05;;;;;;;;;;;;;;;9.99;69.81;102122.88;5067668;28;1527;-71
2023/06/02 03:47:30;;;;;;;;;;;;;;;10.00;69.56;102111.56;5059728;28;1024;-72
2023/06/02 03:49:55;;;;;;;;;;;;;;;10.02;69.45;102117.50;5063728;28;1288;-72
2023/06/02 03:52:21;;;;;;;;;;;;;;;10.01;69.24;102115.81;5064209;28;1284;-73
2023/06/02 03:54:47;;;;;;;;;;;;;;;9.99;69.60;102122.88;5060593;28;1890;-72
2023/06/02 03:57:12;;;;;;;;;;;;;;;10.00;69.52;102116.75;5065955;28;1314;-72
2023/06/02 03:59:37;;;;;;;;;;;;;;;10.02;69.32;102122.69;5064427;28;1104;-72
2023/06/02 04:02:03;;;;;;;;;;;;;;;9.99;69.14;102119.44;5060463;28;1273;-72
2023/06/02 04:04:28;;;;;;;;;;;;;;;10.01;69.24;102118.41;5066294;28;1282;-72
2023/06/02 04:06:53;;;;;;;;;;;;;;;9.99;69.23;102122.88;5068654;28;1359;-72
2023/06/02 04:09:19;;;;;;;;;;;;;;;9.96;69.13;102123.03;5060919;28;1320;-73
2023/06/02 04:11:44;;;;;;;;;;;;;;;9.97;69.28;102123.88;5064320;28;1325;-73
2023/06/02 04:14:12;;;;;;;;;;;;;;;9.96;69.60;102120.44;5063797;28;1894;-71
2023/06/02 04:16:37;;;;;;;;;;;;;;;9.96;69.97;102130.81;5063617;28;1060;-73
2023/06/02 04:19:05;;;;;;;;;;;;;;;9.95;69.80;102131.75;5060681;28;1732;-73
2023/06/02 04:21:30;;;;;;;;;;;;;;;9.90;69.61;102128.56;5063566;28;1283;-71
2023/06/02 04:23:55;;;;;;;;;;;;;;;9.88;69.61;102130.44;5063314;28;1218;-74
2023/06/02 04:26:20;;;;;;;;;;;;;;;9.89;69.10;102137.28;5059346;28;1421;-71
2023/06/02 04:28:46;;;;;;;;;;;;;;;9.88;69.27;102134.78;5061444;28;1402;-73
2023/06/02 04:31:11;;;;;;;;;;;;;;;9.86;69.68;102127.06;5065178;28;1093;-72
2023/06/02 04:33:37;;;;;;;;;;;;;;;9.86;69.44;102132.25;5063839;28;1958;-72
2023/06/02 04:36:03;;;;;;;;;;;;;;;9.89;69.83;102129.50;5061588;28;1364;-72
2023/06/02 04:38:29;;;;;;;;;;;;;;;9.89;69.75;102137.28;5068381;28;1279;-72
2023/06/02 04:40:56;;;;;;;;;;;;;;;9.89;68.92;102131.25;5065579;28;1263;-73
2023/06/02 04:43:21;;;;;;;;;;;;;;;9.86;69.33;102132.25;5066986;28;1220;-72
2023/06/02 04:45:47;;;;;;;;;;;;;;;9.89;69.48;102136.44;5067580;28;1374;-73
2023/06/02 04:48:12;;;;;;;;;;;;;;;9.90;69.68;102133.75;5063189;28;1243;-71
2023/06/02 04:50:37;;;;;;;;;;;;;;;9.90;69.60;102127.75;5067320;28;1331;-72
2023/06/02 04:53:03;;;;;;;;;;;;;;;9.89;69.57;102132.09;5058992;28;1890;-72
2023/06/02 04:55:28;;;;;;;;;;;;;;;9.90;68.94;102128.56;5064715;28;1321;-72
2023/06/02 04:57:53;;;;;;;;;;;;;;;9.84;69.07;102134.13;5063267;28;1257;-72
2023/06/02 05:00:18;;;;;;;;;;;;;;;9.86;69.08;102137.44;5064642;28;1251;-72
2023/06/02 05:02:44;;;;;;;;;;;;;;;9.87;69.31;102133.94;5061394;28;1230;-72
2023/06/02 05:05:10;;;;;;;;;;;;;;;9.86;69.32;102137.44;5063835;28;1192;-72
2023/06/02 05:07:35;;;;;;;;;;;;;;;9.85;69.07;102140.97;5057140;28;1491;-71
2023/06/02 05:10:00;;;;;;;;;;;;;;;9.83;68.82;102137.63;5063913;28;1135;-73
2023/06/02 05:12:26;;;;;;;;;;;;;;;9.88;69.36;102145.16;5059619;28;1298;-73
2023/06/02 05:14:51;;;;;;;;;;;;;;;9.87;69.32;102144.31;5054659;28;1906;-72
2023/06/02 05:17:21;;;;;;;;;;;;;;;9.91;69.39;102142.38;5061426;28;1296;-71
2023/06/02 05:19:47;;;;;;;;;;;;;;;9.90;69.30;102144.13;5061967;28;1398;-73
2023/06/02 05:22:12;;;;;;;;;;;;;;;9.90;69.26;102143.28;5058311;28;1376;-73
2023/06/02 05:24:37;;;;;;;;;;;;;;;9.91;69.30;102145.78;5061773;28;1339;-72
2023/06/02 05:27:02;;;;;;;;;;;;;;;9.93;69.20;102146.56;5060704;28;1292;-73
2023/06/02 05:29:28;;;;;;;;;;;;;;;9.93;68.82;102154.34;5058472;28;1654;-71
2023/06/02 05:31:53;;;;;;;;;;;;;;;9.89;69.23;102152.81;5067579;28;1413;-73
2023/06/02 05:34:18;;;;;;;;;;;;;;;9.96;69.20;102153.31;5059768;28;1964;-72
2023/06/02 05:36:43;;;;;;;;;;;;;;;10.00;69.81;102149.63;5054384;28;1279;-72
2023/06/02 05:39:10;;;;;;;;;;;;;;;10.01;69.65;102144.34;5061976;28;1288;-72
2023/06/02 05:41:35;;;;;;;;;;;;;;;10.07;69.59;102148.34;5058801;28;1398;-72
2023/06/02 05:44:00;;;;;;;;;;;;;;;10.10;69.29;102146.41;5060044;28;1264;-71
2023/06/02 05:46:25;;;;;;;;;;;;;;;10.10;69.28;102150.75;5057314;28;1213;-72
2023/06/02 05:48:51;;;;;;;;;;;;;;;10.13;69.22;102141.97;5064366;28;1270;-71
2023/06/02 05:51:16;;;;;;;;;;;;;;;10.12;69.42;102148.91;5062943;28;1218;-73
2023/06/02 05:53:42;;;;;;;;;;;;;;;10.15;69.78;102150.47;5060658;28;1977;-73
2023/06/02 05:56:07;;;;;;;;;;;;;;;10.15;68.96;102143.56;5065156;28;1393;-71
2023/06/02 05:58:36;;;;;;;;;;;;;;;10.16;69.01;102142.63;5064000;28;1026;-73
2023/06/02 06:01:01;;;;;;;;;;;;;;;10.19;68.62;102136.41;5056076;28;1209;-73
2023/06/02 06:03:27;;;;;;;;;;;;;;;10.18;69.44;102143.34;5061501;28;1296;-73
2023/06/02 06:05:52;;;;;;;;;;;;;;;10.15;68.55;102150.47;5063319;28;1229;-73
2023/06/02 06:08:17;;;;;;;;;;;;;;;10.16;69.60;102144.38;5061813;28;1152;-71
2023/06/02 06:10:42;;;;;;;;;;;;;;;10.21;69.43;102142.34;5056695;28;1241;-71
2023/06/02 06:13:08;;;;;;;;;;;;;;;10.27;68.71;102144.63;5077632;28;1898;-71
2023/06/02 06:15:33;;;;;;;;;;;;;;;10.28;68.99;102138.50;5065674;28;1151;-73
2023/06/02 06:17:58;;;;;;;;;;;;;;;10.28;68.77;102143.69;5061219;28;1337;-74
2023/06/02 06:20:23;;;;;;;;;;;;;;;10.27;68.12;102142.03;5080407;28;1202;-72
2023/06/02 06:22:49;;;;;;;;;;;;;;;10.30;68.36;102147.00;5050471;28;1374;-71
2023/06/02 06:25:14;;;;;;;;;;;;;;;10.35;68.23;102140.63;5058470;28;1352;-72
2023/06/02 06:27:39;;;;;;;;;;;;;;;10.40;67.53;102149.91;5062821;28;1220;-72
2023/06/02 06:30:05;;;;;;;;;;;;;;;10.42;68.58;102146.28;5059755;28;1309;-71
2023/06/02 06:32:30;;;;;;;;;;;;;;;10.47;68.46;102148.59;5059349;28;1416;-72
2023/06/02 06:34:56;;;;;;;;;;;;;;;10.52;68.68;102147.41;5066113;28;1922;-72
2023/06/02 06:37:21;;;;;;;;;;;;;;;10.54;68.02;102155.09;5056657;28;1286;-72
2023/06/02 06:39:46;;;;;;;;;;;;;;;10.52;68.14;102142.22;5062285;28;1221;-72
2023/06/02 06:42:11;;;;;;;;;;;;;;;10.51;67.28;102150.94;5064666;28;1312;-73
2023/06/02 06:44:37;;;;;;;;;;;;;;;10.46;67.47;102150.38;5065455;28;1169;-73
2023/06/02 06:47:02;;;;;;;;;;;;;;;10.50;68.17;102148.44;5063222;28;1269;-72
2023/06/02 06:49:27;;;;;;;;;;;;;;;10.50;67.81;102151.88;5062139;28;1112;-71
2023/06/02 06:51:53;;;;;;;;;;;;;;;10.53;68.18;102159.44;5063870;28;1308;-72
2023/06/02 06:54:18;;;;;;;;;;;;;;;10.61;67.58;102156.41;5060310;28;1914;-74
2023/06/02 06:56:45;;;;;;;;;;;;;;;10.71;68.36;102159.25;5063806;28;1248;-71
2023/06/02 06:59:11;;;;;;;;;;;;;;;10.76;66.88;102159.81;5062407;28;1193;-72
2023/06/02 07:01:37;;;;;;;;;;;;;;;10.81;66.74;102162.97;5063275;28;1168;-72
2023/06/02 07:04:02;;;;;;;;;;;;;;;10.81;66.89;102162.97;5064617;28;1281;-72
2023/06/02 07:06:27;;;;;;;;;;;;;;;10.85;67.46;102164.47;5058755;28;1222;-71
2023/06/02 07:08:52;;;;;;;;;;;;;;;10.89;66.96;102158.13;5061837;28;1535;-71
2023/06/02 07:11:18;;;;;;;;;;;;;;;10.95;66.53;102159.50;5061582;28;1205;-71
2023/06/02 07:13:43;;;;;;;;;;;;;;;10.92;66.62;102160.53;5066246;28;1952;-74
2023/06/02 07:16:08;;;;;;;;;;;;;;;10.92;66.60;102165.75;5062730;28;1325;-71
2023/06/02 07:18:33;;;;;;;;;;;;;;;10.92;65.73;102160.53;5063797;28;1190;-71
2023/06/02 07:20:59;;;;;;;;;;;;;;;10.96;65.83;102158.59;5055511;28;1461;-72
2023/06/02 07:23:24;;;;;;;;;;;;;;;11.03;66.58;102158.13;5058178;28;1489;-72
2023/06/02 07:25:50;;;;;;;;;;;;;;;11.05;65.79;102161.44;5065139;28;1081;-72
2023/06/02 07:28:15;;;;;;;;;;;;;;;11.11;67.04;102160.22;5062541;28;1372;-71
2023/06/02 07:30:44;;;;;;;;;;;;;;;11.21;66.24;102168.28;5063577;28;1501;-71
2023/06/02 07:33:10;;;;;;;;;;;;;;;11.26;65.57;102168.84;5061754;28;1902;-72
2023/06/02 07:35:35;;;;;;;;;;;;;;;11.34;65.96;102171.78;5066399;28;1195;-71
2023/06/02 07:38:00;;;;;;;;;;;;;;;11.34;65.19;102171.78;5059722;28;1313;-72
2023/06/02 07:40:25;;;;;;;;;;;;;;;11.32;63.87;102165.84;5058885;28;1262;-72
2023/06/02 07:42:51;;;;;;;;;;;;;;;11.29;64.87;102173.81;5065265;28;1296;-72
2023/06/02 07:45:16;;;;;;;;;;;;;;;11.28;65.16;102166.97;5057474;28;1335;-72
2023/06/02 07:47:41;;;;;;;;;;;;;;;11.26;65.12;102168.84;5060360;28;1308;-72
2023/06/02 07:50:07;;;;;;;;;;;;;;;11.29;64.92;102171.22;5066752;28;1164;-74
2023/06/02 07:52:32;;;;;;;;;;;;;;;11.39;64.75;102167.94;5067861;28;1596;-72
2023/06/02 07:54:57;;;;;;;;;;;;;;;11.51;65.19;102163.72;5067184;28;1961;-72
2023/06/02 07:57:22;;;;;;;;;;;;;;;11.62;64.99;102163.88;5058336;28;1348;-73
2023/06/02 07:59:48;;;;;;;;;;;;;;;11.69;65.60;102167.75;5063823;28;1079;-71
2023/06/02 08:02:13;;;;;;;;;;;;;;;11.78;65.81;102165.50;5066205;28;1178;-72
2023/06/02 08:04:38;;;;;;;;;;;;;;;11.88;64.62;102166.59;5059691;28;1324;-73
2023/06/02 08:07:04;;;;;;;;;;;;;;;11.94;65.01;102164.41;5066447;28;1258;-72
2023/06/02 08:09:29;;;;;;;;;;;;;;;12.00;64.66;102164.97;5062482;28;1193;-72
2023/06/02 08:11:54;;;;;;;;;;;;;;;12.01;65.83;102162.25;5069700;28;1067;-71
2023/06/02 08:14:20;;;;;;;;;;;;;;;12.03;65.43;102160.38;5065320;28;1902;-72
2023/06/02 08:16:45;;;;;;;;;;;;;;;12.02;65.07;102169.09;5067407;28;1250;-72
2023/06/02 08:19:10;;;;;;;;;;;;;;;12.03;65.52;102165.56;5057979;28;1184;-71
2023/06/02 08:21:36;;;;;;;;;;;;;;;12.02;65.16;102163.06;5068615;28;1211;-73
2023/06/02 08:24:02;;;;;;;;;;;;;;;11.96;65.87;102153.91;5058988;28;1147;-72
2023/06/02 08:26:28;;;;;;;;;;;;;;;11.94;65.72;102155.78;5063640;28;1350;-71
2023/06/02 08:28:55;;;;;;;;;;;;;;;11.94;65.57;102164.41;5065328;28;1373;-73
2023/06/02 08:31:22;;;;;;;;;;;;;;;11.90;65.42;102162.94;5065091;28;1334;-73
2023/06/02 08:33:47;;;;;;;;;;;;;;;11.89;65.75;102157.84;5062979;28;1930;-72
2023/06/02 08:36:17;;;;;;;;;;;;;;;11.93;66.64;102159.34;5062148;28;1324;-73
2023/06/02 08:38:44;;;;;;;;;;;;;;;11.92;67.60;102157.63;5069622;28;1150;-72
2023/06/02 08:41:12;;;;;;;;;;;;;;;11.92;66.27;102162.84;5066014;28;1324;-73
2023/06/02 08:43:37;;;;;;;;;;;;;;;11.97;66.68;102155.56;5058557;28;1269;-75
2023/06/02 08:46:02;;;;;;;;;;;;;;;12.01;66.99;102159.66;5058271;28;1473;-73
2023/06/02 08:48:29;;;;;;;;;;;;;;;12.05;67.15;102163.72;5063248;28;1144;-72
2023/06/02 08:50:54;;;;;;;;;;;;;;;12.06;66.85;102160.19;5063996;28;1470;-72
2023/06/02 08:53:21;;;;;;;;;;;;;;;12.07;66.86;102156.63;5060123;28;1898;-72
2023/06/02 08:55:49;;;;;;;;;;;;;;;12.09;66.04;102159.94;5056321;28;1414;-73
2023/06/02 08:58:14;;;;;;;;;;;;;;;12.08;67.26;102166.09;5058434;28;1203;-71
2023/06/02 09:00:40;;;;;;;;;;;;;;;12.13;67.96;102161.44;5063577;28;1270;-72
2023/06/02 09:03:05;;;;;;;;;;;;;;;12.17;67.75;102159.47;5061772;28;1300;-72
2023/06/02 09:05:31;;;;;;;;;;;;;;;12.22;67.51;102165.19;5055076;28;1351;-72
2023/06/02 09:08:10;;;;;;;;;;;;;;;12.29;67.61;102168.22;5062136;28;1362;-72
2023/06/02 09:10:40;;;;;;;;;;;;;;;12.37;67.28;102163.31;5058077;28;1351;-71
2023/06/02 09:13:05;;;;;;;;;;;;;;;12.46;66.70;102165.31;5063233;28;1953;-73
2023/06/02 09:15:32;;;;;;;;;;;;;;;12.56;67.02;102163.75;5076476;28;1426;-72
2023/06/02 09:18:12;;;;;;;;;;;;;;;12.59;66.37;102158.31;5062943;28;1163;-72
2023/06/02 09:20:39;;;;;;;;;;;;;;;12.65;66.88;102162.25;5064187;28;1257;-73
2023/06/02 09:23:04;;;;;;;;;;;;;;;12.75;66.72;102161.53;5064999;28;1339;-72
2023/06/02 09:25:30;;;;;;;;;;;;;;;12.82;66.36;102161.91;5060295;28;1341;-73
2023/06/02 09:27:56;;;;;;;;;;;;;;;12.81;66.43;102167.25;5065941;28;1535;-71
2023/06/02 09:30:22;;;;;;;;;;;;;;;12.76;66.48;102168.38;5063137;28;1307;-74
2023/06/02 09:32:51;;;;;;;;;;;;;;;12.76;67.00;102171.00;5063836;28;1951;-71
2023/06/02 09:35:35;;;;;;;;;;;;;;;12.82;66.58;102168.91;5065341;28;1237;-73
2023/06/02 09:38:01;;;;;;;;;;;;;;;12.90;66.20;102158.78;5056274;28;1270;-72
2023/06/02 09:40:29;;;;;;;;;;;;;;;12.98;66.65;102169.50;5055173;28;1322;-73
2023/06/02 09:42:54;;;;;;;;;;;;;;;13.01;66.58;102158.84;5080385;28;1296;-72
2023/06/02 09:45:20;;;;;;;;;;;;;;;13.03;66.30;102162.19;5061287;28;1358;-72
2023/06/02 09:47:47;;;;;;;;;;;;;;;12.98;66.01;102159.09;5060894;28;1286;-72
2023/06/02 09:50:31;;;;;;;;;;;;;;;13.00;66.42;102162.41;5065716;28;1726;-71
2023/06/02 09:53:01;;;;;;;;;;;;;;;13.06;66.49;102161.97;5063751;28;1979;-72
2023/06/02 09:55:26;;;;;;;;;;;;;;;13.10;67.14;102157.38;5064430;28;1556;-72
2023/06/02 09:57:52;;;;;;;;;;;;;;;13.15;66.24;102161.31;5062880;28;1344;-72
2023/06/02 10:00:17;;;;;;;;;;;;;;;13.19;66.38;102152.34;5058833;28;1351;-74
2023/06/02 10:02:44;;;;;;;;;;;;;;;13.14;66.35;102159.66;5062677;28;1253;-72
2023/06/02 10:05:09;;;;;;;;;;;;;;;13.18;66.04;102155.88;5065532;28;1280;-72
2023/06/02 10:07:45;;;;;;;;;;;;;;;13.17;66.23;102154.22;5066574;28;1051;-75
2023/06/02 10:10:16;;;;;;;;;;;;;;;13.16;66.50;102155.16;5063682;28;1193;-72
2023/06/02 10:12:50;;;;;;;;;;;;;;;13.32;66.65;102156.72;5065289;28;1105;-73
2023/06/02 10:15:18;;;;;;;;;;;;;;;13.45;65.49;102142.69;5063387;28;1254;-72
2023/06/02 10:21:37;;;;;;;;;;;;;;;13.57;65.66;102148.78;5046365;28;1261;-72
2023/06/02 10:24:11;;;;;;;;;;;;;;;13.68;65.61;102153.19;5040906;28;1504;-72
2023/06/02 10:27:02;;;;;;;;;;;;;;;13.70;65.94;102152.13;5063299;28;1360;-71
2023/06/02 10:29:29;;;;;;;;;;;;;;;13.75;65.46;102150.03;5053680;28;1326;-73
2023/06/02 10:31:55;;;;;;;;;;;;;;;13.67;64.24;102152.38;5057847;28;1532;-74
2023/06/02 10:34:35;;;;;;;;;;;;;;;13.71;65.42;102159.03;5060916;28;1945;-72
2023/06/02 10:37:00;;;;;;;;;;;;;;;13.84;65.58;102147.69;5063921;28;972;-72
2023/06/02 10:39:41;;;;;;;;;;;;;;;13.96;65.35;102152.81;5060875;28;1093;-72
2023/06/02 10:42:13;;;;;;;;;;;;;;;14.05;65.34;102146.09;5051081;28;1341;-74
2023/06/02 10:44:39;;;;;;;;;;;;;;;14.17;64.00;102150.38;5062041;28;1373;-72
2023/06/02 10:47:19;;;;;;;;;;;;;;;14.19;65.39;102148.47;5064769;28;1156;-72
2023/06/02 10:49:50;;;;;;;;;;;;;;;14.30;65.22;102156.31;5075056;28;1330;-71
2023/06/02 10:52:16;;;;;;;;;;;;;;;14.40;64.52;102155.63;5057248;28;1536;-73
2023/06/02 10:54:41;;;;;;;;;;;;;;;14.37;64.37;102150.63;5065525;28;1906;-71
2023/06/02 10:57:07;;;;;;;;;;;;;;;14.43;64.92;102152.78;5055820;28;1524;-74
2023/06/02 10:59:34;;;;;;;;;;;;;;;14.46;65.14;102155.16;5060495;28;1284;-72
2023/06/02 11:01:59;;;;;;;;;;;;;;;14.51;64.30;102153.06;5061913;28;1022;-72
2023/06/02 11:04:26;;;;;;;;;;;;;;;14.57;64.27;102163.03;5065900;28;1000;-73
2023/06/02 11:07:09;;;;;;;;;;;;;;;14.63;64.00;102152.13;5067309;28;965;-72
2023/06/02 11:09:35;;;;;;;;;;;;;;;14.59;63.74;102153.28;5062571;28;982;-71
2023/06/02 11:12:00;;;;;;;;;;;;;;;14.53;64.03;102151.16;5067044;28;1063;-72
2023/06/02 11:14:26;;;;;;;;;;;;;;;14.66;64.35;102151.88;5055742;28;1898;-74
2023/06/02 11:17:09;;;;;;;;;;;;;;;14.78;63.94;102150.91;5063295;28;1292;-73
2023/06/02 11:19:50;;;;;;;;;;;;;;;14.87;62.76;102150.19;5058768;28;1571;-72
2023/06/02 11:22:17;;;;;;;;;;;;;;;14.99;63.43;102148.38;5062518;28;1155;-72
2023/06/02 11:24:43;;;;;;;;;;;;;;;15.04;63.24;102146.25;5061116;28;1380;-72
2023/06/02 11:27:08;;;;;;;;;;;;;;;15.09;63.40;102153.72;5068715;28;1557;-75
2023/06/02 11:29:33;;;;;;;;;;;;;;;15.19;63.67;102143.34;5067440;28;1441;-72
2023/06/02 11:31:59;;;;;;;;;;;;;;;15.31;63.16;102153.66;5068619;28;1339;-72
2023/06/02 11:34:26;;;;;;;;;;;;;;;15.34;62.87;102145.56;5062386;28;1874;-71
2023/06/02 11:36:51;;;;;;;;;;;;;;;15.31;62.67;102147.59;5068926;28;1297;-72
2023/06/02 11:39:16;;;;;;;;;;;;;;;15.38;62.84;102144.38;5068594;28;1030;-73
2023/06/02 11:41:54;;;;;;;;;;;;;;;15.43;62.55;102145.78;5065466;28;1378;-73
2023/06/02 11:44:19;;;;;;;;;;;;;;;15.38;62.25;102133.91;5062712;28;1478;-72
2023/06/02 11:46:45;;;;;;;;;;;;;;;15.33;61.56;102136.06;5065513;28;1602;-72
2023/06/02 11:49:11;;;;;;;;;;;;;;;15.31;62.18;102137.13;5066819;28;1270;-73
2023/06/02 11:51:36;;;;;;;;;;;;;;;15.44;62.31;102142.22;5066084;28;1093;-72
2023/06/02 11:54:02;;;;;;;;;;;;;;;15.45;62.30;102143.88;5065971;28;1906;-73
2023/06/02 11:56:28;;;;;;;;;;;;;;;15.53;62.35;102138.84;5066145;28;1281;-71
2023/06/02 11:58:54;;;;;;;;;;;;;;;15.58;61.74;102140.13;5068877;28;1136;-71
2023/06/02 12:01:21;;;;;;;;;;;;;;;15.62;61.94;102145.94;5068005;28;1282;-72
2023/06/02 12:04:05;;;;;;;;;;;;;;;15.61;62.29;102136.44;5066649;28;1359;-75
2023/06/02 12:06:31;;;;;;;;;;;;;;;15.72;61.42;102136.41;5060965;28;1239;-72
2023/06/02 12:09:08;;;;;;;;;;;;;;;15.72;62.07;102135.59;5069171;28;1158;-72
2023/06/02 12:11:33;;;;;;;;;;;;;;;15.80;61.80;102136.59;5065712;28;1217;-72
2023/06/02 12:14:02;;;;;;;;;;;;;;;15.82;61.15;102137.28;5067260;28;1906;-75
2023/06/02 12:16:28;;;;;;;;;;;;;;;15.72;61.30;102133.81;5063211;28;1261;-71
2023/06/02 12:18:54;;;;;;;;;;;;;;;15.76;62.18;102132.56;5065860;28;1763;-72
2023/06/02 12:21:25;;;;;;;;;;;;;;;15.83;62.11;102125.91;5059447;28;1210;-72
2023/06/02 12:23:50;;;;;;;;;;;;;;;15.93;61.94;102129.38;5067178;28;1238;-72
2023/06/02 12:26:16;;;;;;;;;;;;;;;16.04;60.36;102125.88;5066759;28;1312;-73
2023/06/02 12:28:41;;;;;;;;;;;;;;;16.07;60.60;102130.03;5067125;28;1264;-74
2023/06/02 12:31:06;;;;;;;;;;;;;;;16.02;60.62;102126.97;5063299;28;1722;-72
2023/06/02 12:33:31;;;;;;;;;;;;;;;15.99;61.33;102124.59;5063719;28;2132;-74
2023/06/02 12:35:57;;;;;;;;;;;;;;;16.04;61.46;102127.66;5077770;28;1376;-72
2023/06/02 12:38:23;;;;;;;;;;;;;;;16.17;60.67;102131.75;5059967;28;1811;-73
2023/06/02 12:40:48;;;;;;;;;;;;;;;16.30;61.12;102131.53;5063690;28;2092;-73
2023/06/02 12:43:13;;;;;;;;;;;;;;;16.33;60.76;102133.88;5064852;28;1222;-75
2023/06/02 12:45:38;;;;;;;;;;;;;;;16.45;60.07;102124.97;5073608;28;1094;-71
2023/06/02 12:48:04;;;;;;;;;;;;;;;16.59;60.45;102129.03;5050454;28;1267;-72